Time;durP1;ratioP1;P1;durP2;ratioP2;P2;SDS_P1;SDS_P2;PMS_P1;PMS_P2;Temp;Humidity;BMP_temperature;BMP_pressure;BME280_temperature;BME280_humidity;BME280_pressure;Samples;Min_cycle;Max_cycle;Signal;HPM_P1;HPM_P2
2023/08/23 00:02:17;;;;;;;0.50;0.20;;;;;;;20.50;99.61;100562.81;4996236;28;20975;-52
2023/08/23 00:04:44;;;;;;;0.50;0.20;;;;;;;20.49;99.82;100569.19;4996272;28;20460;-52
2023/08/23 00:07:10;;;;;;;0.50;0.20;;;;;;;20.45;99.39;100583.88;4995904;28;20548;-51
2023/08/23 00:09:36;;;;;;;0.50;0.20;;;;;;;20.41;100.00;100584.06;4987020;28;20457;-52
2023/08/23 00:12:03;;;;;;;0.50;0.20;;;;;;;20.35;99.68;100584.44;4995636;28;20476;-54
2023/08/23 00:14:30;;;;;;;0.50;0.20;;;;;;;20.25;100.00;100583.28;4996163;28;20456;-54
2023/08/23 00:16:56;;;;;;;0.50;0.20;;;;;;;20.33;100.00;100582.78;4995924;28;20497;-54
2023/08/23 00:19:23;;;;;;;0.50;0.20;;;;;;;20.22;100.00;100586.19;4995987;28;20453;-52
2023/08/23 00:21:49;;;;;;;0.50;0.20;;;;;;;20.33;100.00;100586.38;4981552;28;20508;-51
2023/08/23 00:24:18;;;;;;;0.50;0.20;;;;;;;20.05;100.00;100587.25;4995880;28;20453;-51
2023/08/23 00:26:45;;;;;;;0.50;0.30;;;;;;;20.00;100.00;100588.50;4995480;28;20466;-52
2023/08/23 00:29:12;;;;;;;0.50;0.20;;;;;;;20.10;100.00;100585.13;4995926;28;20499;-51
2023/08/23 00:31:38;;;;;;;0.50;0.30;;;;;;;20.27;100.00;100585.88;4995955;28;20449;-52
2023/08/23 00:34:04;;;;;;;0.50;0.20;;;;;;;20.20;100.00;100592.66;4995714;28;20457;-51
2023/08/23 00:36:31;;;;;;;0.50;0.20;;;;;;;20.20;99.91;100582.72;5008709;28;20482;-52
2023/08/23 00:38:58;;;;;;;0.50;0.20;;;;;;;20.17;100.00;100577.50;4995512;28;20524;-52
2023/08/23 00:41:24;;;;;;;0.50;0.47;;;;;;;20.01;100.00;100582.13;4995725;28;20457;-52
2023/08/23 00:43:51;;;;;;;0.50;0.30;;;;;;;20.14;100.00;100580.38;4995344;28;20481;-51
2023/08/23 00:46:18;;;;;;;0.50;0.20;;;;;;;20.19;99.79;100583.69;4995931;28;20920;-52
2023/08/23 00:48:46;;;;;;;0.50;0.20;;;;;;;20.22;99.41;100577.22;4995538;28;20445;-51
2023/08/23 00:51:14;;;;;;;0.50;0.20;;;;;;;20.13;99.29;100579.53;4995402;28;20482;-51
2023/08/23 00:53:40;;;;;;;0.50;0.20;;;;;;;20.03;99.82;100574.81;4995117;28;21014;-52
2023/08/23 00:56:07;;;;;;;0.50;0.30;;;;;;;19.85;100.00;100574.13;4994359;28;20473;-52
2023/08/23 00:58:34;;;;;;;0.60;0.40;;;;;;;19.73;100.00;100578.44;4994997;28;20501;-51
2023/08/23 01:01:01;;;;;;;0.50;0.20;;;;;;;19.74;100.00;100573.94;4995391;28;20544;-51
2023/08/23 01:03:27;;;;;;;0.50;0.20;;;;;;;19.70;100.00;100580.47;4994974;28;20889;-51
2023/08/23 01:06:31;;;;;;;0.50;0.20;;;;;;;19.93;100.00;100592.56;4995026;28;20497;-51
2023/08/23 01:09:32;;;;;;;0.50;0.20;;;;;;;19.85;100.00;100584.91;4995109;28;20813;-51
2023/08/23 01:12:02;;;;;;;0.50;0.20;;;;;;;19.86;100.00;100583.09;4994772;28;20460;-51
2023/08/23 01:14:51;;;;;;;0.50;0.20;;;;;;;19.81;100.00;100586.94;4994775;28;20524;-51
2023/08/23 01:17:20;;;;;;;0.50;0.20;;;;;;;19.71;100.00;100591.16;4974975;28;20513;-52
2023/08/23 01:19:48;;;;;;;0.50;0.20;;;;;;;19.77;100.00;100585.41;4994871;28;20482;-52
2023/08/23 01:22:21;;;;;;;0.50;0.20;;;;;;;19.76;100.00;100580.97;4995128;28;20880;-51
2023/08/23 01:24:51;;;;;;;0.50;0.20;;;;;;;19.79;100.00;100588.88;4994511;28;20446;-52
2023/08/23 01:27:18;;;;;;;0.50;0.20;;;;;;;19.83;100.00;100585.03;4994376;28;20469;-51
2023/08/23 01:29:46;;;;;;;0.50;0.20;;;;;;;19.70;100.00;100585.88;4994675;28;20457;-51
2023/08/23 01:32:34;;;;;;;0.50;0.20;;;;;;;19.65;100.00;100586.16;4994691;28;20453;-51
2023/08/23 01:35:09;;;;;;;0.50;0.30;;;;;;;19.71;100.00;100588.47;4993659;28;20934;-52
2023/08/23 01:37:38;;;;;;;0.50;0.20;;;;;;;19.55;100.00;100579.59;4999094;28;20493;-53
2023/08/23 01:40:10;;;;;;;0.50;0.20;;;;;;;19.55;100.00;100578.72;4994457;28;20541;-52
2023/08/23 01:42:41;;;;;;;1.23;1.23;;;;;;;19.54;100.00;100575.13;4989851;28;20449;-53
2023/08/23 01:45:08;;;;;;;0.57;0.40;;;;;;;19.37;100.00;100583.38;4994249;28;20859;-53
2023/08/23 01:47:35;;;;;;;0.50;0.20;;;;;;;19.20;100.00;100582.56;4994405;28;20469;-52
2023/08/23 01:50:02;;;;;;;0.50;0.20;;;;;;;19.46;100.00;100578.31;4993789;28;20457;-52
2023/08/23 01:52:28;;;;;;;0.50;0.20;;;;;;;19.38;100.00;100579.72;4994363;28;20481;-53
2023/08/23 01:54:55;;;;;;;0.50;0.20;;;;;;;19.40;100.00;100572.41;4994382;28;20445;-54
2023/08/23 01:57:21;;;;;;;0.50;0.20;;;;;;;19.50;100.00;100562.81;4993855;28;20930;-54
2023/08/23 01:59:49;;;;;;;0.50;0.20;;;;;;;19.50;100.00;100574.47;4994333;28;20460;-51
2023/08/23 02:02:16;;;;;;;1.17;1.07;;;;;;;19.34;100.00;100575.50;4994041;28;20457;-53
2023/08/23 02:04:43;;;;;;;0.50;0.20;;;;;;;19.27;100.00;100576.81;4994286;28;20463;-53
2023/08/23 02:07:09;;;;;;;0.50;0.20;;;;;;;19.36;100.00;100571.72;4993990;28;20619;-54
2023/08/23 02:09:35;;;;;;;0.50;0.20;;;;;;;19.36;100.00;100573.56;4993947;28;20460;-53
2023/08/23 02:12:02;;;;;;;0.50;0.20;;;;;;;19.36;100.00;100570.88;4993708;28;20540;-53
2023/08/23 02:14:29;;;;;;;0.50;0.20;;;;;;;19.30;100.00;100568.53;4994038;28;20460;-54
2023/08/23 02:16:55;;;;;;;0.50;0.20;;;;;;;19.35;100.00;100561.03;4993465;28;20484;-53
2023/08/23 02:19:22;;;;;;;0.50;0.30;;;;;;;19.31;100.00;100567.56;4993647;28;20449;-53
2023/08/23 02:21:48;;;;;;;0.50;0.20;;;;;;;19.23;100.00;100563.50;4993852;28;20464;-53
2023/08/23 02:24:15;;;;;;;0.50;0.20;;;;;;;19.47;100.00;100563.00;4993850;28;20536;-53
2023/08/23 02:26:41;;;;;;;0.50;0.20;;;;;;;19.61;100.00;100552.25;4993669;28;20465;-54
2023/08/23 02:29:07;;;;;;;0.50;0.20;;;;;;;19.34;100.00;100549.41;4993514;28;20456;-53
2023/08/23 02:31:34;;;;;;;0.50;0.20;;;;;;;19.31;100.00;100556.78;4993289;28;20450;-53
2023/08/23 02:34:00;;;;;;;0.50;0.20;;;;;;;19.47;100.00;100558.47;4993292;28;20994;-53
2023/08/23 02:36:27;;;;;;;0.50;0.20;;;;;;;19.44;100.00;100568.56;5006420;28;21002;-54
2023/08/23 02:38:54;;;;;;;0.50;0.20;;;;;;;19.14;100.00;100561.34;4993697;28;20500;-55
2023/08/23 02:41:20;;;;;;;0.60;0.60;;;;;;;19.05;100.00;100553.84;4979163;28;20453;-55
2023/08/23 02:43:47;;;;;;;0.50;0.30;;;;;;;19.18;100.00;100556.66;4993273;28;20542;-53
2023/08/23 02:46:13;;;;;;;0.50;0.20;;;;;;;19.13;100.00;100564.16;4993364;28;20472;-55
2023/08/23 02:48:40;;;;;;;0.50;0.20;;;;;;;19.24;100.00;100556.28;4982638;28;20537;-54
2023/08/23 02:51:06;;;;;;;0.50;0.20;;;;;;;19.19;100.00;100556.59;4993519;28;20489;-55
2023/08/23 02:53:33;;;;;;;0.50;0.20;;;;;;;19.27;100.00;100560.63;4993466;28;21030;-54
2023/08/23 02:55:59;;;;;;;0.50;0.20;;;;;;;19.30;100.00;100552.34;4980658;28;20532;-55
2023/08/23 02:58:26;;;;;;;0.50;0.20;;;;;;;19.20;100.00;100557.44;4993155;28;20581;-54
2023/08/23 03:00:53;;;;;;;0.50;0.20;;;;;;;19.13;100.00;100562.31;4978883;28;20457;-55
2023/08/23 03:03:20;;;;;;;0.50;0.20;;;;;;;18.85;100.00;100560.38;4982328;28;20455;-54
2023/08/23 03:05:54;;;;;;;0.50;0.20;;;;;;;18.84;100.00;100558.66;4980512;28;20477;-54
2023/08/23 03:08:22;;;;;;;0.60;0.60;;;;;;;18.87;100.00;100560.28;4993344;28;20456;-54
2023/08/23 03:10:48;;;;;;;0.50;0.20;;;;;;;18.97;100.00;100566.88;4993141;28;20540;-54
2023/08/23 03:13:16;;;;;;;0.50;0.20;;;;;;;18.93;100.00;100565.34;4986887;28;20935;-55
2023/08/23 03:15:43;;;;;;;0.50;0.20;;;;;;;19.01;100.00;100570.25;4980989;28;20481;-54
2023/08/23 03:18:09;;;;;;;0.50;0.20;;;;;;;19.05;100.00;100572.72;4979575;28;20523;-54
2023/08/23 03:20:36;;;;;;;0.50;0.20;;;;;;;18.94;100.00;100559.88;4991272;28;20841;-54
2023/08/23 03:23:02;;;;;;;0.50;0.20;;;;;;;18.77;100.00;100569.88;4999316;28;20457;-55
2023/08/23 03:25:31;;;;;;;0.50;0.20;;;;;;;18.85;100.00;100564.91;4987773;28;20970;-54
2023/08/23 03:27:58;;;;;;;0.50;0.20;;;;;;;18.79;100.00;100560.75;4999242;28;20488;-55
2023/08/23 03:30:24;;;;;;;0.50;0.20;;;;;;;18.82;100.00;100563.28;4992504;28;20479;-55
2023/08/23 03:32:51;;;;;;;0.50;0.20;;;;;;;18.69;100.00;100554.16;4999613;28;20524;-55
2023/08/23 03:35:17;;;;;;;0.50;0.20;;;;;;;18.74;100.00;100546.69;4991470;28;20866;-56
2023/08/23 03:37:44;;;;;;;0.50;0.20;;;;;;;18.81;100.00;100544.50;5002686;28;20500;-53
2023/08/23 03:40:11;;;;;;;0.50;0.30;;;;;;;18.79;100.00;100541.91;4999376;28;20500;-54
2023/08/23 03:42:37;;;;;;;0.50;0.20;;;;;;;18.72;100.00;100536.97;4998973;28;20886;-53
2023/08/23 03:45:04;;;;;;;0.80;0.70;;;;;;;18.66;100.00;100538.19;4999472;28;20453;-54
2023/08/23 03:47:30;;;;;;;0.50;0.20;;;;;;;19.35;100.00;100537.66;4999002;28;20856;-54
2023/08/23 03:49:58;;;;;;;0.50;0.20;;;;;;;18.80;100.00;100537.38;4999165;28;20503;-54
2023/08/23 03:52:24;;;;;;;0.50;0.20;;;;;;;18.57;100.00;100538.69;4999083;28;20451;-54
2023/08/23 03:54:51;;;;;;;0.50;0.20;;;;;;;18.41;100.00;100541.38;4999435;28;20958;-54
2023/08/23 03:57:17;;;;;;;0.50;0.30;;;;;;;18.56;100.00;100532.44;4999176;28;20568;-54
2023/08/23 03:59:44;;;;;;;0.50;0.20;;;;;;;18.51;100.00;100533.66;4998882;28;21012;-53
2023/08/23 04:02:10;;;;;;;0.47;0.20;;;;;;;18.50;100.00;100537.28;4999138;28;20528;-53
2023/08/23 04:04:37;;;;;;;0.50;0.20;;;;;;;18.53;100.00;100538.00;4999117;28;20475;-54
2023/08/23 04:07:07;;;;;;;0.50;0.20;;;;;;;18.57;100.00;100544.06;4998959;28;20473;-54
2023/08/23 04:09:33;;;;;;;0.50;0.30;;;;;;;18.62;100.00;100540.13;4998692;28;20536;-54
2023/08/23 04:12:00;;;;;;;0.50;0.20;;;;;;;18.65;100.00;100541.84;4999169;28;20449;-54
2023/08/23 04:14:26;;;;;;;0.50;0.40;;;;;;;18.60;100.00;100543.88;4998986;28;20466;-53
2023/08/23 04:16:53;;;;;;;0.50;0.20;;;;;;;18.51;100.00;100541.75;4998886;28;20469;-54
2023/08/23 04:19:19;;;;;;;0.50;0.20;;;;;;;18.51;100.00;100534.53;4998874;28;20485;-54
2023/08/23 04:21:46;;;;;;;0.50;0.30;;;;;;;18.45;100.00;100532.16;4998772;28;20453;-53
2023/08/23 04:24:13;;;;;;;0.50;0.20;;;;;;;18.40;100.00;100541.47;4998677;28;20449;-53
2023/08/23 04:26:39;;;;;;;0.50;0.20;;;;;;;18.39;100.00;100537.06;4998610;28;20527;-54
2023/08/23 04:29:05;;;;;;;0.50;0.30;;;;;;;18.40;100.00;100528.88;4998876;28;20539;-53
2023/08/23 04:31:32;;;;;;;0.50;0.20;;;;;;;18.43;100.00;100539.47;4996906;28;20457;-54
2023/08/23 04:33:59;;;;;;;0.50;0.20;;;;;;;18.46;100.00;100536.59;4995671;28;20481;-53
2023/08/23 04:36:25;;;;;;;0.50;0.20;;;;;;;18.37;100.00;100537.16;5008518;28;20584;-54
2023/08/23 04:38:51;;;;;;;0.50;0.20;;;;;;;18.31;100.00;100534.78;4995407;28;20488;-53
2023/08/23 04:41:18;;;;;;;0.50;0.20;;;;;;;18.22;100.00;100540.66;4995851;28;20536;-54
2023/08/23 04:43:44;;;;;;;0.50;0.20;;;;;;;18.23;100.00;100532.53;4995456;28;20449;-53
2023/08/23 04:46:11;;;;;;;0.50;0.20;;;;;;;18.31;100.00;100540.16;4995625;28;20469;-54
2023/08/23 04:48:37;;;;;;;0.50;0.20;;;;;;;18.34;100.00;100537.28;4995451;28;20614;-54
2023/08/23 04:51:09;;;;;;;0.50;0.20;;;;;;;18.43;100.00;100538.59;4990718;28;20488;-54
2023/08/23 04:53:36;;;;;;;0.50;0.20;;;;;;;18.44;100.00;100545.72;4995570;28;20477;-53
2023/08/23 04:56:03;;;;;;;0.50;0.20;;;;;;;18.38;100.00;100548.78;4982510;28;20505;-54
2023/08/23 04:58:30;;;;;;;0.50;0.20;;;;;;;18.37;100.00;100552.44;4994783;28;20511;-53
2023/08/23 05:01:05;;;;;;;1.07;1.07;;;;;;;18.51;100.00;100550.69;4995142;28;20507;-53
2023/08/23 05:03:32;;;;;;;0.50;0.20;;;;;;;18.43;100.00;100561.00;4995041;28;20457;-54
2023/08/23 05:06:00;;;;;;;0.50;0.20;;;;;;;18.29;100.00;100551.03;4994733;28;20601;-53
2023/08/23 05:08:28;;;;;;;0.50;0.20;;;;;;;18.34;100.00;100556.13;4994716;28;21034;-53
2023/08/23 05:10:55;;;;;;;0.50;0.20;;;;;;;18.44;100.00;100553.81;4995215;28;20449;-52
2023/08/23 05:13:23;;;;;;;0.47;0.20;;;;;;;18.53;100.00;100553.28;4995106;28;20455;-54
2023/08/23 05:15:56;;;;;;;0.50;0.20;;;;;;;18.80;100.00;100556.25;4995543;28;20549;-54
2023/08/23 05:18:23;;;;;;;0.50;0.20;;;;;;;19.09;100.00;100558.09;4994787;28;20868;-55
2023/08/23 05:21:00;;;;;;;0.50;0.20;;;;;;;19.62;100.00;100558.53;4995042;28;20556;-55
2023/08/23 05:23:26;;;;;;;0.50;0.20;;;;;;;19.94;99.29;100562.78;4994914;28;20452;-54
2023/08/23 05:25:53;;;;;;;0.50;0.20;;;;;;;20.15;98.58;100565.06;4994792;28;20466;-54
2023/08/23 05:28:21;;;;;;;0.50;0.20;;;;;;;20.59;96.81;100570.34;4994614;28;20508;-55
2023/08/23 05:30:50;;;;;;;0.50;0.20;;;;;;;20.79;95.80;100572.56;4994667;28;20544;-54
2023/08/23 05:33:16;;;;;;;0.50;0.20;;;;;;;21.02;94.88;100567.47;4994636;28;20454;-54
2023/08/23 05:35:43;;;;;;;0.50;0.20;;;;;;;21.33;94.17;100571.69;5007167;28;20999;-53
2023/08/23 05:38:10;;;;;;;0.50;0.20;;;;;;;21.28;94.46;100572.00;4994864;28;20544;-54
2023/08/23 05:40:37;;;;;;;0.50;0.20;;;;;;;21.71;92.82;100575.31;4994657;28;20996;-55
2023/08/23 05:43:05;;;;;;;0.50;0.20;;;;;;;21.78;91.84;100579.28;4993840;28;20449;-54
2023/08/23 05:45:32;;;;;;;0.50;0.20;;;;;;;21.96;91.40;100581.69;4976813;28;20458;-54
2023/08/23 05:47:59;;;;;;;0.50;0.20;;;;;;;21.99;90.34;100584.19;4994439;28;20834;-54
2023/08/23 05:50:26;;;;;;;0.50;0.20;;;;;;;22.06;90.10;100574.66;4994242;28;20459;-54
2023/08/23 05:52:52;;;;;;;0.50;0.20;;;;;;;22.39;89.32;100584.91;4988310;28;20429;-54
2023/08/23 05:55:19;;;;;;;0.50;0.20;;;;;;;22.25;89.58;100582.34;4994062;28;20449;-55
2023/08/23 05:57:45;;;;;;;0.50;0.20;;;;;;;22.39;89.31;100579.50;4994024;28;20445;-53
2023/08/23 06:00:14;;;;;;;0.50;0.30;;;;;;;22.13;89.59;100584.94;4994038;28;20524;-54
2023/08/23 06:02:40;;;;;;;0.50;0.20;;;;;;;22.28;88.85;100585.69;4980934;28;20449;-54
2023/08/23 06:05:07;;;;;;;0.50;0.20;;;;;;;22.41;88.34;100591.06;4994131;28;20453;-54
2023/08/23 06:07:34;;;;;;;0.50;0.30;;;;;;;22.22;88.38;100586.16;4994061;28;20500;-54
2023/08/23 06:10:00;;;;;;;0.50;0.30;;;;;;;22.42;88.15;100584.69;4993962;28;20451;-54
2023/08/23 06:12:27;;;;;;;0.50;0.20;;;;;;;22.08;89.23;100580.84;4993736;28;20432;-54
2023/08/23 06:14:54;;;;;;;0.50;0.20;;;;;;;22.02;90.47;100584.81;4993810;28;20477;-54
2023/08/23 06:17:21;;;;;;;0.50;0.20;;;;;;;21.95;90.37;100591.66;4993645;28;20545;-55
2023/08/23 06:19:47;;;;;;;0.50;0.20;;;;;;;22.07;91.36;100590.81;4993926;28;20496;-54
2023/08/23 06:22:14;;;;;;;0.50;0.20;;;;;;;22.25;89.60;100595.88;4993705;28;20453;-54
2023/08/23 06:24:40;;;;;;;0.50;0.40;;;;;;;22.04;89.73;100596.41;4993514;28;20456;-55
2023/08/23 06:27:07;;;;;;;0.50;0.20;;;;;;;21.95;90.57;100593.50;4993378;28;20450;-55
2023/08/23 06:29:40;;;;;;;0.50;0.20;;;;;;;21.95;90.99;100598.91;4993652;28;20449;-54
2023/08/23 06:32:07;;;;;;;0.50;0.20;;;;;;;22.03;91.43;100607.34;4993523;28;20423;-55
2023/08/23 06:34:34;;;;;;;0.73;0.57;;;;;;;22.13;90.95;100600.34;4996353;28;20432;-55
2023/08/23 06:37:01;;;;;;;0.50;0.20;;;;;;;22.07;91.21;100604.38;5002892;28;20967;-55
2023/08/23 06:39:29;;;;;;;0.50;0.20;;;;;;;21.90;92.14;100604.63;4993168;28;21101;-54
2023/08/23 06:42:00;;;;;;;0.93;0.93;;;;;;;21.99;91.57;100603.13;4993740;28;20468;-55
2023/08/23 06:44:27;;;;;;;0.60;0.50;;;;;;;22.10;90.84;100601.44;5000673;28;20451;-54
2023/08/23 06:46:53;;;;;;;0.50;0.20;;;;;;;22.12;90.54;100595.91;4993239;28;20891;-55
2023/08/23 06:49:20;;;;;;;0.50;0.20;;;;;;;22.12;91.01;100599.47;4993292;28;20453;-53
2023/08/23 06:51:46;;;;;;;0.50;0.50;;;;;;;22.10;90.76;100587.88;4993373;28;20456;-55
2023/08/23 06:54:13;;;;;;;0.50;0.20;;;;;;;22.45;90.71;100604.28;4992437;28;20874;-54
2023/08/23 06:56:39;;;;;;;0.50;0.20;;;;;;;22.55;89.48;100603.63;4993195;28;20478;-54
2023/08/23 06:59:05;;;;;;;0.50;0.20;;;;;;;22.21;91.21;100605.22;4993013;28;20493;-55
2023/08/23 07:01:32;;;;;;;0.50;0.20;;;;;;;22.53;90.04;100611.88;4983584;28;20548;-55
2023/08/23 07:03:59;;;;;;;0.50;0.20;;;;;;;22.49;89.40;100606.78;4993207;28;20994;-55
2023/08/23 07:06:25;;;;;;;0.50;0.30;;;;;;;22.50;89.23;100611.22;4993088;28;20474;-55
2023/08/23 07:08:52;;;;;;;0.50;0.20;;;;;;;22.97;85.57;100607.72;4992691;28;20450;-55
2023/08/23 07:11:18;;;;;;;0.50;0.20;;;;;;;22.87;86.78;100618.38;4993425;28;20453;-55
2023/08/23 07:13:44;;;;;;;0.50;0.30;;;;;;;22.76;86.54;100615.59;4992890;28;20453;-55
2023/08/23 07:16:11;;;;;;;0.50;0.20;;;;;;;22.82;86.48;100619.69;4993073;28;20484;-55
2023/08/23 07:18:38;;;;;;;0.50;0.20;;;;;;;23.12;85.63;100622.84;4992784;28;20471;-55
2023/08/23 07:21:04;;;;;;;0.50;0.20;;;;;;;23.00;85.87;100623.75;4992910;28;20503;-55
2023/08/23 07:23:31;;;;;;;0.50;0.20;;;;;;;23.08;84.97;100615.94;4992725;28;20922;-55
2023/08/23 07:25:57;;;;;;;0.50;0.20;;;;;;;23.56;83.36;100621.28;4993037;28;20443;-55
2023/08/23 07:28:27;;;;;;;0.50;0.30;;;;;;;23.37;83.79;100620.97;4992868;28;20459;-56
2023/08/23 07:30:57;;;;;;;0.50;0.30;;;;;;;23.70;83.31;100617.53;4993116;28;20449;-56
2023/08/23 07:33:25;;;;;;;0.50;0.30;;;;;;;23.31;84.19;100619.63;4992895;28;20424;-55
2023/08/23 07:35:59;;;;;;;0.50;0.30;;;;;;;23.63;83.79;100620.72;5018942;23;20465;-51
2023/08/23 07:38:26;;;;;;;0.50;0.20;;;;;;;23.81;84.10;100620.28;4973577;28;20461;-51
2023/08/23 07:41:00;;;;;;;0.50;0.30;;;;;;;23.91;83.24;100618.56;4973504;28;20549;-51
2023/08/23 07:43:26;;;;;;;0.50;0.20;;;;;;;24.02;82.80;100618.59;4973123;28;20427;-51
2023/08/23 07:45:54;;;;;;;0.50;0.30;;;;;;;24.34;82.22;100612.47;4973266;28;20509;-51
2023/08/23 07:48:25;;;;;;;0.50;0.20;;;;;;;24.08;82.40;100618.09;4973251;28;20429;-51
2023/08/23 07:50:56;;;;;;;0.50;0.20;;;;;;;24.67;80.51;100620.59;4973442;28;20458;-51
2023/08/23 07:53:23;;;;;;;0.70;0.70;;;;;;;24.83;80.01;100613.88;4973357;28;20960;-51
2023/08/23 07:55:50;;;;;;;0.50;0.20;;;;;;;24.27;80.19;100620.22;4973253;28;20486;-51
2023/08/23 07:58:16;;;;;;;0.50;0.20;;;;;;;24.21;80.48;100618.84;4973257;28;20457;-51
2023/08/23 08:00:43;;;;;;;0.50;0.20;;;;;;;24.20;81.89;100627.13;4972981;28;20581;-51
2023/08/23 08:03:10;;;;;;;0.50;0.30;;;;;;;24.52;80.47;100621.81;4973494;28;20453;-51
2023/08/23 08:05:37;;;;;;;0.50;0.23;;;;;;;25.01;78.42;100620.53;4973639;28;20944;-50
2023/08/23 08:08:05;;;;;;;0.50;0.20;;;;;;;24.74;79.19;100626.38;4976947;28;20455;-51
2023/08/23 08:10:35;;;;;;;0.50;0.30;;;;;;;24.76;79.22;100627.09;4976843;28;20420;-51
2023/08/23 08:13:02;;;;;;;0.50;0.30;;;;;;;24.69;78.57;100626.75;4976820;28;20578;-51
2023/08/23 08:15:29;;;;;;;0.50;0.20;;;;;;;24.58;79.45;100620.47;4976477;28;20460;-51
2023/08/23 08:17:55;;;;;;;0.50;0.30;;;;;;;24.48;80.27;100620.34;4976704;28;20451;-51
2023/08/23 08:20:24;;;;;;;0.50;0.20;;;;;;;24.87;79.26;100624.38;4963936;28;20468;-51
2023/08/23 08:22:51;;;;;;;0.50;0.30;;;;;;;25.01;78.15;100612.38;4976609;28;20457;-51
2023/08/23 08:25:18;;;;;;;0.50;0.20;;;;;;;25.31;78.62;100614.38;4976526;28;20424;-51
2023/08/23 08:27:45;;;;;;;0.50;0.30;;;;;;;25.23;78.38;100615.03;4976398;28;20481;-51
2023/08/23 08:30:12;;;;;;;0.50;0.20;;;;;;;25.44;78.83;100619.63;4976385;28;20456;-51
2023/08/23 08:32:39;;;;;;;2.10;2.00;;;;;;;26.28;75.87;100627.66;4976449;28;20425;-51
2023/08/23 08:35:06;;;;;;;0.50;0.20;;;;;;;26.08;74.37;100628.56;4983760;28;20435;-51
2023/08/23 08:37:32;;;;;;;0.50;0.30;;;;;;;26.05;74.35;100623.41;4981615;28;20539;-50
2023/08/23 08:39:58;;;;;;;0.50;0.23;;;;;;;25.57;76.53;100628.47;4976321;28;20819;-50
2023/08/23 08:42:25;;;;;;;0.50;0.27;;;;;;;25.65;76.90;100629.56;4976519;28;20450;-51
2023/08/23 08:44:52;;;;;;;0.50;0.30;;;;;;;26.22;75.71;100628.22;4976505;28;20508;-51
2023/08/23 08:47:19;;;;;;;0.50;0.20;;;;;;;25.86;75.64;100615.94;4976397;28;20832;-51
2023/08/23 08:49:45;;;;;;;0.50;0.20;;;;;;;26.15;74.44;100621.56;4976090;28;20428;-51
2023/08/23 08:52:13;;;;;;;0.50;0.30;;;;;;;26.58;74.37;100626.78;4976144;28;20450;-51
2023/08/23 08:54:41;;;;;;;0.50;0.30;;;;;;;26.25;73.94;100618.88;4975968;28;20598;-51
2023/08/23 08:57:09;;;;;;;0.50;0.30;;;;;;;26.52;73.91;100613.72;4975719;28;20501;-51
2023/08/23 08:59:36;;;;;;;0.50;0.30;;;;;;;26.12;74.62;100613.66;4975752;28;20860;-51
2023/08/23 09:02:04;;;;;;;0.50;0.30;;;;;;;26.51;73.76;100603.81;4975793;28;20909;-51
2023/08/23 09:04:30;;;;;;;0.50;0.30;;;;;;;26.18;74.42;100604.09;4968653;28;20429;-51
2023/08/23 09:06:57;;;;;;;6.53;3.70;;;;;;;26.08;74.49;100604.03;4975782;28;20532;-51
2023/08/23 09:09:24;;;;;;;0.50;0.20;;;;;;;26.21;74.02;100599.22;4975735;28;20425;-51
2023/08/23 09:11:50;;;;;;;0.50;0.40;;;;;;;26.21;74.81;100599.22;4974333;28;20854;-51
2023/08/23 09:14:25;;;;;;;0.50;0.20;;;;;;;26.61;72.89;100601.13;4975753;28;20433;-51
2023/08/23 09:16:51;;;;;;;0.50;0.30;;;;;;;26.62;72.75;100602.00;4975108;28;20472;-51
2023/08/23 09:19:21;;;;;;;0.50;0.20;;;;;;;26.75;72.80;100599.88;4975244;28;20495;-50
2023/08/23 09:21:49;;;;;;;0.87;0.87;;;;;;;26.67;71.93;100594.25;4976552;28;20484;-51
2023/08/23 09:24:16;;;;;;;0.50;0.30;;;;;;;27.16;68.47;100590.63;4975633;28;20425;-50
2023/08/23 09:26:44;;;;;;;0.50;0.30;;;;;;;27.54;67.88;100595.19;4975575;28;20496;-50
2023/08/23 09:29:11;;;;;;;0.50;0.30;;;;;;;27.67;65.12;100592.19;4975550;28;20546;-50
2023/08/23 09:31:39;;;;;;;0.50;0.30;;;;;;;27.44;65.13;100592.50;4975287;28;20968;-50
2023/08/23 09:34:14;;;;;;;0.50;0.30;;;;;;;27.84;65.75;100601.53;4975509;28;20446;-50
2023/08/23 09:36:40;;;;;;;0.50;0.30;;;;;;;27.54;62.75;100595.19;4975020;28;20509;-50
2023/08/23 09:39:11;;;;;;;0.50;0.30;;;;;;;27.39;63.26;100592.03;4975164;28;20799;-50
2023/08/23 09:41:40;;;;;;;0.50;0.23;;;;;;;27.50;60.16;100590.16;4975470;28;20541;-50
2023/08/23 09:44:22;;;;;;;0.50;0.30;;;;;;;27.39;60.11;100589.31;4975126;28;20493;-50
2023/08/23 09:46:51;;;;;;;0.50;0.30;;;;;;;27.39;61.58;100583.84;4975055;28;20445;-50
2023/08/23 09:49:21;;;;;;;0.50;0.30;;;;;;;27.69;58.82;100585.59;4974979;28;20856;-50
2023/08/23 09:51:51;;;;;;;0.50;0.23;;;;;;;28.14;59.90;100592.22;4975265;28;20509;-51
2023/08/23 09:54:25;;;;;;;0.50;0.30;;;;;;;27.83;58.79;100591.59;4974918;28;20429;-50
2023/08/23 09:57:13;;;;;;;0.50;0.30;;;;;;;28.11;60.23;100587.91;4975621;28;20466;-50
2023/08/23 09:59:42;;;;;;;0.50;0.30;;;;;;;27.97;58.46;100599.34;4974759;28;20986;-50
2023/08/23 10:02:12;;;;;;;0.50;0.30;;;;;;;28.07;58.23;100591.09;4975092;28;20545;-50
2023/08/23 10:04:40;;;;;;;0.50;0.30;;;;;;;27.96;58.31;100587.53;4974779;28;20938;-50
2023/08/23 10:07:08;;;;;;;0.50;0.40;;;;;;;27.90;58.39;100590.00;4975262;28;20482;-51
2023/08/23 10:09:35;;;;;;;0.50;0.30;;;;;;;28.17;58.39;100591.91;4974706;28;20898;-51
2023/08/23 10:12:04;;;;;;;0.50;0.30;;;;;;;28.09;57.11;100584.44;4974638;28;20457;-51
2023/08/23 10:14:33;;;;;;;0.50;0.30;;;;;;;28.04;56.85;100581.31;4974828;28;20462;-51
2023/08/23 10:17:02;;;;;;;0.50;0.30;;;;;;;27.90;59.08;100582.66;4974536;28;20455;-51
2023/08/23 10:19:29;;;;;;;0.50;0.30;;;;;;;28.15;58.92;100585.75;4974605;28;20490;-51
2023/08/23 10:21:55;;;;;;;0.50;0.30;;;;;;;28.68;56.80;100588.69;4974605;28;20454;-51
2023/08/23 10:24:29;;;;;;;0.50;0.30;;;;;;;29.06;56.32;100582.13;4974574;28;20454;-51
2023/08/23 10:26:55;;;;;;;0.50;0.30;;;;;;;29.05;54.86;100571.28;4962157;28;20451;-51
2023/08/23 10:29:28;;;;;;;1.03;1.03;;;;;;;28.89;55.64;100580.22;4974486;28;20450;-51
2023/08/23 10:31:55;;;;;;;0.50;0.30;;;;;;;28.97;54.13;100576.72;4974389;28;20537;-51
2023/08/23 10:34:26;;;;;;;0.50;0.30;;;;;;;28.46;56.43;100576.25;4975743;28;20429;-51
2023/08/23 10:36:55;;;;;;;0.50;0.33;;;;;;;28.84;58.09;100583.38;4985147;28;20469;-51
2023/08/23 10:39:25;;;;;;;0.50;0.30;;;;;;;29.25;54.46;100575.63;4974467;28;20482;-51
2023/08/23 10:41:53;;;;;;;0.50;0.30;;;;;;;29.35;54.19;100579.13;4974249;28;20429;-51
2023/08/23 10:44:20;;;;;;;0.50;0.30;;;;;;;28.90;53.53;100579.19;4973790;28;20877;-51
2023/08/23 10:46:50;;;;;;;0.50;0.20;;;;;;;29.29;52.87;100570.66;4974100;28;20501;-51
2023/08/23 10:49:20;;;;;;;0.50;0.33;;;;;;;29.12;50.79;100564.19;4974118;28;20455;-51
2023/08/23 10:51:47;;;;;;;0.50;0.30;;;;;;;29.27;53.01;100561.75;4973959;28;20546;-51
2023/08/23 10:54:14;;;;;;;0.50;0.30;;;;;;;29.57;49.44;100569.56;4974102;28;20458;-51
2023/08/23 10:56:40;;;;;;;0.50;0.30;;;;;;;29.65;50.10;100568.78;4974047;28;20477;-51
2023/08/23 10:59:08;;;;;;;0.50;0.30;;;;;;;29.41;49.12;100573.00;4973862;28;20545;-51
2023/08/23 11:01:35;;;;;;;0.50;0.30;;;;;;;29.05;49.02;100572.16;4973875;28;20517;-51
2023/08/23 11:04:02;;;;;;;0.50;0.30;;;;;;;28.84;48.79;100568.84;4973718;28;20458;-51
2023/08/23 11:06:30;;;;;;;0.50;0.20;;;;;;;29.11;50.55;100574.28;4973966;28;20481;-51
2023/08/23 11:08:57;;;;;;;0.50;0.30;;;;;;;29.47;49.95;100569.69;4973904;28;20478;-51
2023/08/23 11:11:28;;;;;;;0.50;0.30;;;;;;;29.13;48.21;100572.25;4973915;28;20457;-51
2023/08/23 11:13:55;;;;;;;0.50;0.30;;;;;;;29.10;48.42;100564.34;4961145;28;20521;-51
2023/08/23 11:16:22;;;;;;;0.50;0.30;;;;;;;29.42;50.36;100562.91;4973773;28;20558;-51
2023/08/23 11:18:52;;;;;;;0.50;0.30;;;;;;;29.29;50.74;100563.31;4973680;28;20464;-50
2023/08/23 11:21:19;;;;;;;0.50;0.30;;;;;;;29.78;48.97;100558.25;4973483;28;20496;-51
2023/08/23 11:23:45;;;;;;;0.50;0.30;;;;;;;30.05;46.55;100562.75;4974170;28;20451;-51
2023/08/23 11:26:13;;;;;;;0.60;0.60;;;;;;;29.39;45.30;100564.09;4973674;28;20470;-51